createdAt,value
2019-02-12T00:00:14.794Z,47.90
2019-02-12T00:02:42.274Z,47.90
2019-02-12T00:05:09.734Z,47.90
2019-02-12T00:07:37.203Z,47.70
2019-02-12T00:10:05.632Z,47.70
2019-02-12T00:12:33.105Z,47.70
2019-02-12T00:15:00.582Z,47.70
2019-02-12T00:17:28.050Z,47.70
2019-02-12T00:19:55.517Z,47.90
2019-02-12T00:22:22.987Z,47.90
2019-02-12T00:24:50.473Z,47.90
2019-02-12T00:27:17.942Z,47.90
2019-02-12T00:29:45.738Z,47.90
2019-02-12T00:32:13.210Z,47.80
2019-02-12T00:34:40.953Z,47.80
2019-02-12T00:37:08.429Z,47.80
2019-02-12T00:39:35.914Z,47.80
2019-02-12T00:42:03.380Z,47.60
2019-02-12T00:44:30.929Z,47.70
2019-02-12T00:46:58.400Z,47.70
2019-02-12T00:49:25.869Z,47.70
2019-02-12T00:51:53.382Z,47.80
2019-02-12T00:54:20.843Z,47.80
2019-02-12T00:56:48.309Z,47.90
2019-02-12T00:59:15.882Z,47.70
2019-02-12T01:01:43.349Z,47.70
2019-02-12T01:04:10.901Z,47.50
2019-02-12T01:06:38.353Z,47.60
2019-02-12T01:09:05.829Z,47.50
2019-02-12T01:11:33.719Z,47.50
2019-02-12T01:14:01.182Z,47.40
2019-02-12T01:16:28.660Z,47.40
2019-02-12T01:18:56.134Z,47.40
2019-02-12T01:21:26.320Z,47.50
2019-02-12T01:23:52.797Z,47.70
2019-02-12T01:26:20.272Z,47.70
2019-02-12T01:28:47.733Z,47.70
2019-02-12T01:31:15.222Z,47.70
2019-02-12T01:33:42.678Z,47.60
2019-02-12T01:36:10.151Z,47.60
2019-02-12T01:38:37.613Z,47.60
2019-02-12T01:41:05.084Z,47.60
2019-02-12T01:43:32.551Z,47.70
2019-02-12T01:46:00.019Z,47.70
2019-02-12T01:48:27.486Z,47.70
2019-02-12T01:50:55.021Z,47.60
2019-02-12T01:53:22.502Z,47.60
2019-02-12T01:55:49.978Z,47.70
2019-02-12T01:58:17.449Z,47.70
2019-02-12T02:00:44.947Z,47.70
2019-02-12T02:03:12.401Z,47.60
2019-02-12T02:05:39.872Z,47.70
2019-02-12T02:08:07.348Z,47.80
2019-02-12T02:10:34.905Z,47.70
2019-02-12T02:13:02.376Z,47.80
2019-02-12T02:15:29.837Z,47.60
2019-02-12T02:17:57.301Z,47.60
2019-02-12T02:20:24.761Z,47.60
2019-02-12T02:22:52.244Z,47.50
2019-02-12T02:25:19.709Z,47.50
2019-02-12T02:27:47.191Z,47.50
2019-02-12T02:30:14.939Z,47.50
2019-02-12T02:32:42.441Z,47.70
2019-02-12T02:35:09.949Z,47.70
2019-02-12T02:37:37.421Z,47.60
2019-02-12T02:40:06.060Z,47.60
2019-02-12T02:42:33.535Z,47.70
2019-02-12T02:45:01.002Z,47.60
2019-02-12T02:47:28.490Z,47.50
2019-02-12T02:49:55.953Z,47.60
2019-02-12T02:52:23.433Z,47.70
2019-02-12T02:54:50.896Z,47.50
2019-02-12T02:57:18.375Z,47.60
2019-02-12T02:59:45.856Z,47.50
2019-02-12T03:02:13.331Z,47.60
2019-02-12T03:04:40.796Z,47.70
2019-02-12T03:07:08.260Z,47.70
2019-02-12T03:09:36.015Z,47.70
2019-02-12T03:12:03.476Z,47.60
2019-02-12T03:14:30.942Z,47.70
2019-02-12T03:16:58.410Z,47.70
2019-02-12T03:19:25.870Z,47.70
2019-02-12T03:21:53.329Z,47.60
2019-02-12T03:24:21.075Z,48.20
2019-02-12T03:26:48.541Z,47.70
2019-02-12T03:29:16.026Z,47.70
2019-02-12T03:31:43.509Z,47.60
2019-02-12T03:34:10.969Z,47.60
2019-02-12T03:36:38.435Z,47.60
2019-02-12T03:39:05.909Z,47.60
2019-02-12T03:41:33.371Z,47.50
2019-02-12T03:44:00.851Z,47.40
2019-02-12T03:46:28.321Z,47.40
2019-02-12T03:48:55.793Z,47.40
2019-02-12T03:51:23.257Z,47.30
2019-02-12T03:53:50.736Z,47.20
2019-02-12T03:56:18.202Z,47.40
2019-02-12T03:58:45.675Z,47.40
2019-02-12T04:01:13.149Z,47.40
2019-02-12T04:03:40.634Z,47.70
2019-02-12T04:06:08.106Z,47.70
2019-02-12T04:08:35.575Z,47.60
2019-02-12T04:11:03.041Z,47.60
2019-02-12T04:13:30.516Z,47.60
2019-02-12T04:15:58.045Z,47.60
2019-02-12T04:18:25.511Z,47.60
2019-02-12T04:20:52.978Z,47.60
2019-02-12T04:23:20.441Z,47.60
2019-02-12T04:25:47.910Z,47.60
2019-02-12T04:28:17.026Z,47.70
2019-02-12T04:30:44.494Z,48.30
2019-02-12T04:33:11.952Z,47.80
2019-02-12T04:35:39.418Z,47.80
2019-02-12T04:38:06.884Z,47.80
2019-02-12T04:40:34.427Z,47.70
2019-02-12T04:43:02.001Z,47.80
2019-02-12T04:45:29.465Z,47.80
2019-02-12T04:47:56.934Z,47.50
2019-02-12T04:50:24.397Z,47.60
2019-02-12T04:52:51.853Z,47.50
2019-02-12T04:55:19.334Z,47.40
2019-02-12T04:57:46.783Z,47.40
2019-02-12T05:00:15.873Z,47.40
2019-02-12T05:02:43.334Z,47.30
2019-02-12T05:05:10.801Z,47.30
2019-02-12T05:07:38.266Z,47.20
2019-02-12T05:10:07.748Z,47.30
2019-02-12T05:12:35.242Z,47.40
2019-02-12T05:15:02.715Z,47.50
2019-02-12T05:17:30.182Z,47.50
2019-02-12T05:19:57.645Z,47.40
2019-02-12T05:22:25.130Z,47.40
2019-02-12T05:24:52.589Z,47.40
2019-02-12T05:27:20.059Z,47.30
2019-02-12T05:29:47.532Z,47.20
2019-02-12T05:32:15.076Z,47.20
2019-02-12T05:34:42.537Z,47.20
2019-02-12T05:37:10.274Z,47.10
2019-02-12T05:39:37.742Z,47.10
2019-02-12T05:42:05.229Z,46.90
2019-02-12T05:44:32.683Z,46.90
2019-02-12T05:47:00.162Z,46.90
2019-02-12T05:49:27.629Z,46.90
2019-02-12T05:51:55.122Z,46.90
2019-02-12T05:54:22.587Z,46.90
2019-02-12T05:56:50.054Z,46.90
2019-02-12T05:59:17.523Z,46.80
2019-02-12T06:01:45.023Z,46.80
2019-02-12T06:04:12.534Z,46.80
2019-02-12T06:06:40.017Z,46.80
2019-02-12T06:09:07.486Z,46.90
2019-02-12T06:11:34.947Z,46.90
2019-02-12T06:14:02.429Z,46.90
2019-02-12T06:16:29.894Z,46.90
2019-02-12T06:18:57.362Z,46.90
2019-02-12T06:21:24.826Z,46.80
2019-02-12T06:23:52.289Z,46.80
2019-02-12T06:26:19.835Z,46.90
2019-02-12T06:28:47.299Z,46.80
2019-02-12T06:31:14.759Z,46.80
2019-02-12T06:33:42.221Z,46.80
2019-02-12T06:36:09.766Z,46.80
2019-02-12T06:38:37.236Z,46.80
2019-02-12T06:41:04.977Z,46.80
2019-02-12T06:43:32.437Z,46.80
2019-02-12T06:45:59.901Z,46.80
2019-02-12T06:48:27.362Z,46.60
2019-02-12T06:50:54.826Z,46.60
2019-02-12T06:53:22.287Z,46.60
2019-02-12T06:55:50.018Z,46.50
2019-02-12T06:58:17.487Z,46.70
2019-02-12T07:00:44.949Z,46.70
2019-02-12T07:03:16.295Z,46.70
2019-02-12T07:05:45.401Z,46.60
2019-02-12T07:08:29.971Z,46.70
2019-02-12T07:10:59.168Z,46.80
2019-02-12T07:13:28.274Z,46.80
2019-02-12T07:15:56.010Z,46.70
2019-02-12T07:18:40.113Z,46.60
2019-02-12T07:21:15.170Z,46.60
2019-02-12T07:24:02.314Z,46.60
2019-02-12T07:26:49.482Z,46.60
2019-02-12T07:29:35.450Z,46.60
2019-02-12T07:32:21.313Z,46.60
2019-02-12T07:35:06.919Z,46.60
2019-02-12T07:37:36.011Z,46.60
2019-02-12T07:40:10.862Z,46.60
2019-02-12T07:42:42.902Z,46.60
2019-02-12T07:45:24.188Z,46.60
2019-02-12T07:48:02.013Z,46.50
2019-02-12T07:50:31.191Z,46.40
2019-02-12T07:53:03.333Z,46.50
2019-02-12T07:55:41.629Z,46.60
2019-02-12T07:58:28.960Z,46.60
2019-02-12T08:00:58.049Z,46.50
2019-02-12T08:03:44.105Z,46.50
2019-02-12T08:06:13.205Z,46.60
2019-02-12T08:08:42.311Z,46.40
2019-02-12T08:11:14.088Z,46.40
2019-02-12T08:13:49.144Z,46.50
2019-02-12T08:16:24.289Z,46.50
2019-02-12T08:18:53.382Z,46.50
2019-02-12T08:21:25.135Z,46.50
2019-02-12T08:23:54.236Z,46.40
2019-02-12T08:26:32.212Z,46.40
2019-02-12T08:29:18.018Z,46.30
2019-02-12T08:31:52.984Z,46.90
2019-02-12T08:34:38.846Z,46.40
2019-02-12T08:37:07.938Z,46.40
2019-02-12T08:39:39.838Z,46.90
2019-02-12T08:42:11.819Z,46.70
2019-02-12T08:44:43.846Z,46.60
2019-02-12T08:47:31.392Z,46.80
2019-02-12T08:50:00.493Z,46.80
2019-02-12T08:52:29.595Z,46.70
2019-02-12T08:55:01.735Z,46.60
2019-02-12T08:57:36.547Z,46.50
2019-02-12T09:00:14.772Z,46.50
2019-02-12T09:02:43.874Z,46.60
2019-02-12T09:05:31.110Z,46.60
2019-02-12T09:08:00.204Z,46.60
2019-02-12T09:10:31.940Z,46.50
2019-02-12T09:13:01.042Z,46.50
2019-02-12T09:15:36.216Z,46.40
2019-02-12T09:18:20.337Z,46.40
2019-02-12T09:21:01.534Z,46.50
2019-02-12T09:23:33.303Z,46.80
2019-02-12T09:26:02.397Z,46.70
2019-02-12T09:28:31.501Z,46.80
2019-02-12T09:31:12.681Z,46.80
2019-02-12T09:33:58.226Z,46.90
2019-02-12T09:36:30.034Z,47.20
2019-02-12T09:39:05.460Z,47.60
2019-02-12T09:41:46.820Z,47.10
2019-02-12T09:44:32.516Z,47.20
2019-02-12T09:47:01.625Z,47.20
2019-02-12T09:49:47.211Z,47.00
2019-02-12T09:52:16.314Z,46.90
2019-02-12T09:54:48.072Z,47.00
2019-02-12T09:57:17.256Z,46.90
2019-02-12T09:59:46.345Z,46.80
2019-02-12T10:02:31.894Z,46.70
2019-02-12T10:05:06.810Z,46.70
2019-02-12T10:07:38.655Z,46.60
2019-02-12T10:10:25.906Z,46.50
2019-02-12T10:12:57.577Z,46.50
2019-02-12T10:15:26.675Z,46.50
2019-02-12T10:17:55.775Z,46.50
2019-02-12T10:20:24.862Z,46.40
2019-02-12T10:22:56.863Z,46.30
2019-02-12T10:25:24.690Z,46.30
2019-02-12T10:28:09.050Z,46.40
2019-02-12T10:30:41.098Z,46.30
2019-02-12T10:33:08.577Z,46.30
2019-02-12T10:35:36.034Z,47.00
2019-02-12T10:38:03.810Z,46.50
2019-02-12T10:40:31.561Z,46.50
2019-02-12T10:42:59.061Z,46.50
2019-02-12T10:45:26.590Z,46.50
2019-02-12T10:47:54.168Z,46.60
2019-02-12T10:50:21.638Z,46.50
2019-02-12T10:52:49.126Z,46.50
2019-02-12T10:55:16.600Z,46.50
2019-02-12T10:57:44.064Z,46.50
2019-02-12T11:00:12.206Z,46.70
2019-02-12T11:02:39.680Z,46.50
2019-02-12T11:05:07.204Z,46.50
2019-02-12T11:07:34.673Z,46.40
2019-02-12T11:10:02.142Z,46.50
2019-02-12T11:12:29.607Z,46.50
2019-02-12T11:14:57.077Z,46.30
2019-02-12T11:17:24.560Z,46.40
2019-02-12T11:19:52.078Z,46.00
2019-02-12T11:22:19.545Z,46.30
2019-02-12T11:24:47.026Z,47.00
2019-02-12T11:27:14.486Z,46.40
2019-02-12T11:29:41.964Z,46.40
2019-02-12T11:32:09.541Z,46.30
2019-02-12T11:34:37.021Z,46.20
2019-02-12T11:37:04.505Z,46.20
2019-02-12T11:39:31.977Z,46.20
2019-02-12T11:41:59.455Z,46.20
2019-02-12T11:44:26.932Z,46.40
2019-02-12T11:46:54.398Z,46.20
2019-02-12T11:49:21.888Z,46.20
2019-02-12T11:51:49.362Z,46.20
2019-02-12T11:54:16.825Z,46.20
2019-02-12T11:56:44.301Z,46.10
2019-02-12T11:59:11.774Z,46.10
2019-02-12T12:01:39.244Z,46.10
2019-02-12T12:04:06.801Z,46.10
2019-02-12T12:06:34.266Z,46.10
2019-02-12T12:09:01.730Z,46.10
2019-02-12T12:11:29.203Z,46.20
2019-02-12T12:13:56.673Z,46.20
2019-02-12T12:16:24.148Z,46.20
2019-02-12T12:18:51.630Z,46.20
2019-02-12T12:21:19.105Z,46.20
2019-02-12T12:23:46.585Z,46.20
2019-02-12T12:26:14.048Z,46.20
2019-02-12T12:28:43.330Z,46.20
2019-02-12T12:31:11.003Z,46.00
2019-02-12T12:33:38.541Z,46.10
2019-02-12T12:36:06.010Z,46.10
2019-02-12T12:38:33.562Z,45.90
2019-02-12T12:41:01.035Z,46.00
2019-02-12T12:43:29.819Z,46.00
2019-02-12T12:45:57.471Z,46.10
2019-02-12T12:48:24.949Z,46.20
2019-02-12T12:50:52.422Z,46.20
2019-02-12T12:53:19.895Z,46.20
2019-02-12T12:55:47.359Z,46.20
2019-02-12T12:58:14.831Z,46.20
2019-02-12T13:00:42.290Z,46.30
2019-02-12T13:03:09.760Z,46.60
2019-02-12T13:05:37.225Z,46.40
2019-02-12T13:08:04.690Z,46.30
2019-02-12T13:10:32.155Z,46.20
2019-02-12T13:12:59.625Z,46.30
2019-02-12T13:15:27.097Z,46.20
2019-02-12T13:17:54.558Z,46.30
2019-02-12T13:20:22.092Z,46.40
2019-02-12T13:22:49.562Z,46.60
2019-02-12T13:25:17.026Z,46.70
2019-02-12T13:27:44.506Z,46.60
2019-02-12T13:30:16.720Z,46.40
2019-02-12T13:32:44.191Z,46.40
2019-02-12T13:35:11.680Z,46.40
2019-02-12T13:37:39.152Z,46.40
2019-02-12T13:40:08.119Z,46.30
2019-02-12T13:42:35.584Z,46.40
2019-02-12T13:45:03.049Z,46.40
2019-02-12T13:47:30.598Z,46.50
2019-02-12T13:49:59.298Z,46.30
2019-02-12T13:52:26.915Z,46.40
2019-02-12T13:54:54.671Z,46.50
2019-02-12T13:57:22.154Z,46.30
2019-02-12T13:59:49.702Z,46.50
2019-02-12T14:02:17.178Z,46.40
2019-02-12T14:04:44.649Z,46.30
2019-02-12T14:07:12.112Z,46.20
2019-02-12T14:09:39.581Z,46.30
2019-02-12T14:12:07.052Z,46.40
2019-02-12T14:14:34.518Z,46.30
2019-02-12T14:17:01.989Z,46.20
2019-02-12T14:19:29.461Z,47.00
2019-02-12T14:21:56.953Z,46.50
2019-02-12T14:24:24.434Z,46.40
2019-02-12T14:26:51.898Z,46.40
2019-02-12T14:29:19.387Z,46.40
2019-02-12T14:31:52.815Z,46.40
2019-02-12T14:34:16.066Z,46.40
2019-02-12T14:36:43.539Z,46.40
2019-02-12T14:39:11.002Z,46.40
2019-02-12T14:41:38.540Z,46.40
2019-02-12T14:44:06.022Z,46.40
2019-02-12T14:46:33.495Z,46.40
2019-02-12T14:49:01.020Z,46.40
2019-02-12T14:51:28.482Z,46.40
2019-02-12T14:53:56.226Z,46.40
2019-02-12T14:56:23.699Z,46.40
2019-02-12T14:58:51.162Z,46.40
2019-02-12T15:01:18.630Z,46.40
2019-02-12T15:03:46.090Z,46.40
2019-02-12T15:06:13.556Z,46.40
2019-02-12T15:08:41.026Z,47.20
2019-02-12T15:11:08.493Z,46.50
2019-02-12T15:13:35.971Z,46.50
2019-02-12T15:16:03.434Z,46.40
2019-02-12T15:18:30.904Z,46.50
2019-02-12T15:20:58.378Z,46.50
2019-02-12T15:23:25.837Z,46.50
2019-02-12T15:25:53.300Z,46.50
2019-02-12T15:28:20.761Z,46.50
2019-02-12T15:30:48.325Z,46.50
2019-02-12T15:33:15.781Z,46.60
2019-02-12T15:35:43.254Z,46.60
2019-02-12T15:38:10.711Z,46.60
2019-02-12T15:40:38.185Z,46.70
2019-02-12T15:43:05.649Z,46.60
2019-02-12T15:45:33.551Z,46.70
2019-02-12T15:48:01.017Z,46.70
2019-02-12T15:50:28.481Z,46.70
2019-02-12T15:52:55.950Z,46.70
2019-02-12T15:55:23.438Z,46.80
2019-02-12T15:57:50.918Z,46.70
2019-02-12T16:00:20.666Z,46.70
2019-02-12T16:02:48.306Z,46.60
2019-02-12T16:05:15.764Z,46.50
2019-02-12T16:07:45.181Z,46.60
2019-02-12T16:10:17.647Z,46.60
2019-02-12T16:12:46.538Z,46.70
2019-02-12T16:15:15.970Z,46.50
2019-02-12T16:17:43.445Z,46.50
2019-02-12T16:20:10.905Z,46.50
2019-02-12T16:22:38.392Z,46.50
2019-02-12T16:25:07.537Z,46.40
2019-02-12T16:27:35.004Z,46.40
2019-02-12T16:30:02.482Z,46.40
2019-02-12T16:32:29.950Z,46.40
2019-02-12T16:34:57.480Z,46.40
2019-02-12T16:37:25.058Z,46.50
2019-02-12T16:39:52.521Z,46.60
2019-02-12T16:42:20.010Z,46.70
2019-02-12T16:44:47.469Z,46.60
2019-02-12T16:47:15.018Z,46.70
2019-02-12T16:49:42.468Z,46.60
2019-02-12T16:52:09.929Z,46.70
2019-02-12T16:54:37.400Z,46.60
2019-02-12T16:57:04.866Z,46.70
2019-02-12T16:59:32.333Z,46.70
2019-02-12T17:01:59.793Z,47.10
2019-02-12T17:04:27.261Z,46.70
2019-02-12T17:06:54.732Z,46.80
2019-02-12T17:09:22.196Z,46.80
2019-02-12T17:11:49.752Z,46.70
2019-02-12T17:14:17.320Z,46.70
2019-02-12T17:16:44.789Z,46.70
2019-02-12T17:19:12.249Z,46.70
2019-02-12T17:21:39.718Z,46.70
2019-02-12T17:24:07.190Z,46.80
2019-02-12T17:26:34.648Z,46.80
2019-02-12T17:29:02.184Z,46.80
2019-02-12T17:31:29.901Z,46.80
2019-02-12T17:33:57.374Z,46.70
2019-02-12T17:36:24.846Z,46.80
2019-02-12T17:38:52.589Z,46.70
2019-02-12T17:41:20.050Z,46.70
2019-02-12T17:43:47.518Z,46.70
2019-02-12T17:46:14.980Z,46.80
2019-02-12T17:48:42.444Z,46.70
2019-02-12T17:51:09.905Z,46.70
2019-02-12T17:53:37.942Z,46.70
2019-02-12T17:56:05.401Z,46.70
2019-02-12T17:58:32.872Z,46.70
2019-02-12T18:01:00.344Z,46.70
2019-02-12T18:03:27.846Z,46.70
2019-02-12T18:05:55.341Z,46.60
2019-02-12T18:08:22.882Z,46.70
2019-02-12T18:10:50.386Z,46.70
2019-02-12T18:13:17.945Z,46.60
2019-02-12T18:15:45.413Z,46.70
2019-02-12T18:18:12.873Z,46.70
2019-02-12T18:20:40.346Z,46.80
2019-02-12T18:23:07.804Z,46.70
2019-02-12T18:25:35.273Z,46.60
2019-02-12T18:28:02.728Z,46.70
2019-02-12T18:30:30.205Z,46.70
2019-02-12T18:32:57.661Z,46.70
2019-02-12T18:35:25.137Z,46.70
2019-02-12T18:37:52.604Z,46.70
2019-02-12T18:40:20.070Z,46.70
2019-02-12T18:42:47.821Z,46.80
2019-02-12T18:45:17.200Z,46.70
2019-02-12T18:47:44.673Z,46.70
2019-02-12T18:50:12.153Z,46.80
2019-02-12T18:52:39.646Z,47.00
2019-02-12T18:55:08.736Z,47.00
2019-02-12T18:57:36.264Z,47.00
2019-02-12T19:00:05.602Z,46.90
2019-02-12T19:02:33.145Z,46.80
2019-02-12T19:05:00.692Z,46.80
2019-02-12T19:07:28.190Z,47.10
2019-02-12T19:09:55.985Z,47.30
2019-02-12T19:12:23.452Z,47.10
2019-02-12T19:14:50.913Z,47.00
2019-02-12T19:17:18.433Z,47.10
2019-02-12T19:19:45.895Z,47.40
2019-02-12T19:22:13.356Z,47.50
2019-02-12T19:24:40.898Z,47.60
2019-02-12T19:27:08.448Z,47.60
2019-02-12T19:29:35.922Z,47.70
2019-02-12T19:32:03.466Z,47.70
2019-02-12T19:34:30.924Z,47.70
2019-02-12T19:36:58.469Z,47.70
2019-02-12T19:39:25.937Z,47.80
2019-02-12T19:41:53.432Z,47.90
2019-02-12T19:44:20.956Z,47.90
2019-02-12T19:46:48.514Z,48.00
2019-02-12T19:49:15.977Z,48.00
2019-02-12T19:51:43.549Z,48.10
2019-02-12T19:54:11.249Z,48.20
2019-02-12T19:56:38.721Z,48.20
2019-02-12T19:59:06.180Z,48.10
2019-02-12T20:01:33.691Z,48.30
2019-02-12T20:04:01.320Z,48.40
2019-02-12T20:06:28.905Z,48.30
2019-02-12T20:08:56.447Z,48.30
2019-02-12T20:11:23.934Z,48.50
2019-02-12T20:13:51.401Z,48.40
2019-02-12T20:16:18.886Z,48.50
2019-02-12T20:18:46.354Z,48.50
2019-02-12T20:21:13.842Z,48.50
2019-02-12T20:23:41.390Z,48.50
2019-02-12T20:26:08.962Z,48.50
2019-02-12T20:28:36.578Z,48.60
2019-02-12T20:31:04.095Z,48.50
2019-02-12T20:33:31.561Z,48.40
2019-02-12T20:35:59.102Z,48.30
2019-02-12T20:38:26.565Z,48.30
2019-02-12T20:40:54.030Z,48.20
2019-02-12T20:43:21.501Z,48.10
2019-02-12T20:45:49.042Z,48.10
2019-02-12T20:48:16.495Z,48.20
2019-02-12T20:50:44.128Z,48.30
2019-02-12T20:53:11.722Z,48.30
2019-02-12T20:55:39.185Z,48.40
2019-02-12T20:58:06.662Z,48.30
2019-02-12T21:00:34.116Z,48.20
2019-02-12T21:03:01.590Z,48.20
2019-02-12T21:05:29.066Z,48.20
2019-02-12T21:07:56.550Z,48.00
2019-02-12T21:10:24.179Z,48.10
2019-02-12T21:12:51.675Z,48.10
2019-02-12T21:15:20.790Z,47.80
2019-02-12T21:17:48.265Z,47.90
2019-02-12T21:20:15.733Z,48.60
2019-02-12T21:22:43.204Z,48.10
2019-02-12T21:25:11.241Z,48.10
2019-02-12T21:27:38.705Z,48.10
2019-02-12T21:30:25.397Z,48.00
2019-02-12T21:32:52.878Z,47.90
2019-02-12T21:35:20.337Z,47.80
2019-02-12T21:37:48.192Z,47.80
2019-02-12T21:40:16.921Z,47.70
2019-02-12T21:42:44.450Z,47.60
2019-02-12T21:45:12.738Z,47.60
2019-02-12T21:47:40.446Z,47.60
2019-02-12T21:50:11.331Z,47.60
2019-02-12T21:52:38.789Z,47.80
2019-02-12T21:55:07.885Z,47.80
2019-02-12T21:57:35.349Z,47.90
2019-02-12T22:00:02.886Z,47.80
2019-02-12T22:02:30.345Z,47.60
2019-02-12T22:04:57.819Z,47.60
2019-02-12T22:07:25.346Z,47.60
2019-02-12T22:09:52.930Z,47.50
2019-02-12T22:12:20.390Z,47.60
2019-02-12T22:14:47.870Z,47.50
2019-02-12T22:17:15.335Z,47.50
2019-02-12T22:19:42.810Z,47.40
2019-02-12T22:22:10.296Z,47.50
2019-02-12T22:24:37.772Z,47.70
2019-02-12T22:27:05.229Z,47.60
2019-02-12T22:29:32.708Z,47.60
2019-02-12T22:32:00.517Z,47.60
2019-02-12T22:34:28.288Z,47.60
2019-02-12T22:36:55.757Z,47.70
2019-02-12T22:39:23.501Z,47.60
2019-02-12T22:41:50.970Z,47.50
2019-02-12T22:44:18.438Z,47.60
2019-02-12T22:46:45.899Z,48.10
2019-02-12T22:49:13.365Z,47.40
2019-02-12T22:51:40.829Z,47.30
2019-02-12T22:54:08.284Z,47.30
2019-02-12T22:56:35.766Z,47.20
2019-02-12T22:59:03.234Z,47.20
2019-02-12T23:01:32.343Z,47.30
2019-02-12T23:03:59.811Z,47.40
2019-02-12T23:06:27.269Z,47.40
2019-02-12T23:08:54.739Z,47.40
2019-02-12T23:11:22.206Z,48.00
2019-02-12T23:13:49.676Z,47.30
2019-02-12T23:16:17.133Z,47.20
2019-02-12T23:18:44.606Z,47.20
2019-02-12T23:21:12.070Z,47.20
2019-02-12T23:23:39.525Z,47.20
2019-02-12T23:26:06.995Z,47.10
2019-02-12T23:28:34.453Z,47.50
2019-02-12T23:31:01.926Z,47.10
2019-02-12T23:33:29.396Z,47.20
2019-02-12T23:35:56.874Z,47.30
2019-02-12T23:38:24.332Z,47.30
2019-02-12T23:40:52.125Z,47.30
2019-02-12T23:43:19.591Z,47.20
2019-02-12T23:45:47.053Z,47.10
2019-02-12T23:48:14.528Z,47.10
2019-02-12T23:50:41.991Z,47.10
2019-02-12T23:53:09.453Z,46.90
2019-02-12T23:55:36.918Z,46.90
2019-02-12T23:58:05.989Z,46.80
